Latest Weather Observations for Yulara

IDD60801

Issued at 7:31 pm CST Saturday 1 October 2016 (issued every 30 minutes, with the page automatically refreshed every 10 minutes)

About weather observations | Map of weather stations | Latest weather observations for NT | Other Formats
Station Details ID: 015635 Name: YULARA AIRPORT Lat: -25.19 Lon: 130.97 Height: 492.0 m
Data from the previous 72 hours. | See also: Recent months at Yulara
Date/Time
CST
Temp
°C
App
Temp
°C
Dew
Point
°C
Rel
Hum
%
Delta-T
°C
Wind Press
QNH
hPa
Press
MSL
hPa
Rain since
9am
mm
Dir  Spd
km/h
Gust
km/h
Spd
kts
Gust
kts
01/07:30pm 22.8 15.9 14.6 60 5.0 NW 44 69 24 37 1007.3 1004.7 0.0
01/07:13pm 25.1 16.3 13.3 48 7.1 NW 52 76 28 41 1006.6 1003.9 0.0
01/07:00pm 27.3 19.2 10.9 36 9.5 NW 44 63 24 34 1006.1 1003.4 0.0
01/06:30pm 29.4 21.3 3.4 19 13.5 NNW 35 54 19 29 1005.2 1002.6 0.0
01/06:13pm 29.7 21.6 1.2 16 14.2 NNW 33 52 18 28 1005.1 1002.4 0.0
01/06:00pm 29.9 21.0 0.5 15 14.5 NNW 37 54 20 29 1004.9 1002.2 0.0
01/05:35pm 30.5 21.5 0.0 14 15.0 NNW 37 56 20 30 1004.8 1002.1 0.0
01/05:30pm 30.8 20.9 -0.8 13 15.4 NNW 41 56 22 30 1004.8 1002.1 0.0
01/05:13pm 31.0 22.1 -1.7 12 15.6 NNW 35 54 19 29 1004.7 1002.0 0.0
01/05:00pm 31.0 21.8 -1.7 12 15.6 NNW 37 54 20 29 1004.7 1002.0 0.0
01/04:30pm 31.2 23.2 -2.7 11 16.0 NNW 30 44 16 24 1004.8 1002.1 0.0
01/04:11pm 32.1 22.8 -2.0 11 16.3 NNW 37 56 20 30 1005.0 1002.3 0.0
01/04:00pm 31.8 21.9 -3.5 10 16.5 NNW 39 52 21 28 1005.2 1002.6 0.0
01/03:51pm 32.6 24.0 -2.9 10 16.8 NW 33 52 18 28 1005.2 1002.6 0.0
01/03:30pm 32.2 23.0 -4.6 9 17.0 NW 35 48 19 26 1005.6 1003.0 0.0
01/03:04pm 31.9 23.8 -6.4 8 17.0 NW 28 46 15 25 1006.4 1003.7 0.0
01/03:00pm 32.7 23.7 -5.8 8 17.5 NW 33 48 18 26 1006.4 1003.7 0.0
01/02:30pm 32.9 24.1 -5.7 8 17.6 NNW 32 46 17 25 1006.7 1004.0 0.0
01/02:13pm 32.4 24.0 -6.0 8 17.3 NNW 30 48 16 26 1007.0 1004.4 0.0
01/02:00pm 31.8 24.5 -6.5 8 17.0 NNW 24 41 13 22 1007.2 1004.6 0.0
01/01:30pm 31.6 22.6 -8.3 7 17.2 NNW 32 50 17 27 1007.7 1005.1 0.0
01/01:09pm 30.9 22.8 -7.1 8 16.6 NW 28 46 15 25 1007.9 1005.3 0.0
01/01:00pm 31.0 22.9 -7.1 8 16.6 NNW 28 39 15 21 1008.0 1005.4 0.0
01/12:30pm 30.8 24.3 -5.7 9 16.3 NW 20 32 11 17 1008.5 1005.8 0.0
01/12:00pm 30.8 24.2 -7.2 8 16.5 NNW 20 30 11 16 1009.3 1006.7 0.0
01/11:30am 30.1 24.1 -6.2 9 16.0 NNW 17 30 9 16 1009.6 1007.0 0.0
01/11:00am 29.0 22.4 -7.0 9 15.5 NNW 20 33 11 18 1010.2 1007.6 0.0
01/10:30am 28.0 22.0 -6.4 10 14.8 N 17 24 9 13 1010.7 1008.1 0.0
01/10:00am 25.7 20.2 -5.8 12 13.4 N 15 22 8 12 1011.3 1008.7 0.0
01/09:30am 23.4 18.6 -2.2 18 11.5 NNE 13 17 7 9 1011.4 1008.8 0.0
01/09:00am 20.8 16.9 -1.7 22 9.9 NNE 9 13 5 7 1011.7 1009.9 0.0
01/08:30am 17.9 14.1 -0.8 28 8.2 N 9 15 5 8 1011.9 1010.1 0.0
01/08:00am 14.8 10.9 -1.3 33 6.8 NNE 9 13 5 7 1011.9 1010.1 0.0
01/07:30am 12.2 8.9 -1.0 40 5.5 E 6 7 3 4 1011.6 1009.8 0.0
01/07:00am 7.4 4.7 0.4 61 2.9 NE 4 7 2 4 1011.5 1009.7 0.0
01/06:30am 5.9 3.8 -0.6 63 2.5 CALM 0 0 0 0 1011.1 1009.2 0.0
01/06:00am 5.6 3.6 -0.4 65 2.4 CALM 0 0 0 0 1010.7 1008.8 0.0
01/05:30am 5.2 3.2 -0.2 68 2.1 CALM 0 0 0 0 1010.6 1008.7 0.0
01/05:00am 5.7 3.6 -0.6 64 2.5 CALM 0 0 0 0 1010.4 1008.5 0.0
01/04:30am 6.4 3.5 -1.0 59 2.9 SSW 4 7 2 4 1010.4 1008.5 0.0
01/04:00am 6.1 2.8 -1.3 59 2.9 SSW 6 7 3 4 1010.5 1008.6 0.0
01/03:30am 6.8 3.5 -0.9 58 3.0 SW 6 9 3 5 1010.6 1008.7 0.0
01/03:00am 7.0 5.0 -0.2 60 2.9 CALM 0 0 0 0 1010.8 1008.9 0.0
01/02:30am 8.1 5.6 -0.9 53 3.6 ENE 2 7 1 4 1010.8 1008.9 0.0
01/02:00am 9.7 6.2 -1.3 46 4.4 NE 7 13 4 7 1010.9 1009.0 0.0
01/01:30am 8.6 5.2 -0.9 51 3.8 S 7 9 4 5 1010.8 1008.9 0.0
01/01:00am 9.1 6.9 -1.6 47 4.2 CALM 0 0 0 0 1011.0 1009.1 0.0
01/12:30am 9.1 5.8 -1.6 47 4.2 WSW 6 7 3 4 1011.0 1009.1 0.0
01/12:00am 10.3 7.0 -1.1 45 4.6 WSW 6 7 3 4 1011.2 1009.4 0.0
 
Date/Time
CST
Temp
°C
App
Temp
°C
Dew
Point
°C
Rel
Hum
%
Delta-T
°C
Wind Press
QNH
hPa
Press
MSL
hPa
Rain since
9am
mm
Dir  Spd
km/h
Gust
km/h
Spd
kts
Gust
kts
30/11:30pm 9.6 7.2 0.0 51 4.0 NNW 2 6 1 3 1011.3 1009.5 0.0
30/11:00pm 10.6 8.5 -0.5 46 4.6 CALM 0 0 0 0 1011.3 1009.5 0.0
30/10:30pm 11.4 9.5 0.5 47 4.6 CALM 0 0 0 0 1011.3 1009.5 0.0
30/10:00pm 12.2 10.2 0.0 43 5.2 CALM 0 0 0 0 1011.5 1009.7 0.0
30/09:30pm 13.7 10.3 -1.9 34 6.4 NNW 6 6 3 3 1011.5 1009.7 0.0
30/09:00pm 13.9 10.8 0.2 39 5.9 NNE 6 7 3 4 1011.3 1009.5 0.0
30/08:30pm 16.2 13.0 -3.3 26 8.0 NNE 4 7 2 4 1011.1 1009.2 0.0
30/08:00pm 17.6 14.3 -1.6 27 8.3 N 6 7 3 4 1010.9 1009.0 0.0
30/07:30pm 19.2 15.4 -3.6 21 9.6 NNW 7 9 4 5 1010.4 1008.5 0.0
30/07:00pm 21.3 17.0 -4.7 17 10.9 N 9 11 5 6 1010.0 1008.2 0.0
30/06:30pm 23.1 18.4 -4.9 15 11.9 NNW 11 17 6 9 1009.9 1008.1 0.0
30/06:00pm 24.5 18.5 -6.7 12 13.0 NNW 17 22 9 12 1009.6 1007.8 0.0
30/05:30pm 24.8 18.8 -6.5 12 13.1 N 17 26 9 14 1009.4 1007.6 0.0
30/05:00pm 25.0 19.5 -5.3 13 13.0 NNW 15 24 8 13 1009.6 1007.8 0.0
30/04:30pm 25.2 20.0 -6.2 12 13.3 NNW 13 20 7 11 1009.5 1007.7 0.0
30/04:00pm 25.4 19.8 -6.0 12 13.3 NW 15 26 8 14 1010.0 1008.2 0.0
30/03:30pm 24.4 19.2 -5.8 13 12.7 NNW 13 20 7 11 1010.5 1008.6 0.0
30/03:00pm 23.7 18.9 -6.3 13 12.5 N 11 22 6 12 1011.2 1009.4 0.0
30/02:30pm 23.5 17.9 -6.5 13 12.4 WSW 15 28 8 15 1012.0 1010.2 0.0
30/02:00pm 22.7 18.7 -5.2 15 11.7 N 7 13 4 7 1012.6 1010.7 0.0
30/01:30pm 22.3 18.1 -3.9 17 11.2 NE 9 17 5 9 1013.2 1011.4 0.0
30/01:00pm 21.6 17.4 -3.7 18 10.8 N 9 17 5 9 1013.7 1011.9 0.0
30/12:30pm 21.3 15.7 -3.2 19 10.5 NW 17 28 9 15 1014.4 1012.6 0.0
30/12:00pm 20.2 15.8 -2.2 22 9.7 NNW 11 19 6 10 1015.1 1013.3 0.0
30/11:30am 18.8 14.7 -2.7 23 9.1 E 9 17 5 9 1015.1 1013.3 0.0
30/11:00am 18.7 14.1 -1.2 26 8.7 ENE 13 20 7 11 1015.6 1013.8 0.0
30/10:30am 17.2 12.9 -1.4 28 8.0 ENE 11 24 6 13 1016.0 1014.2 0.0
30/10:00am 17.0 12.4 -0.7 30 7.7 E 13 19 7 10 1016.1 1014.3 0.0
30/09:30am 15.1 10.2 -0.6 34 6.7 ENE 15 24 8 13 1016.5 1014.7 0.0
30/09:00am 14.0 8.7 -0.8 36 6.3 E 17 22 9 12 1016.5 1014.7 0.0
30/08:30am 12.9 8.3 -0.7 39 5.7 E 13 19 7 10 1016.6 1014.9 0.0
30/08:00am 11.4 7.3 -0.1 45 4.8 SE 11 15 6 8 1016.1 1014.3 0.0
30/07:30am 7.6 3.8 -0.6 56 3.3 S 9 11 5 6 1015.6 1013.8 0.0
30/07:00am 4.4 0.5 -1.6 65 2.2 S 9 11 5 6 1015.3 1013.5 0.0
30/06:30am 2.9 -1.1 -2.2 69 1.8 SSW 9 9 5 5 1015.1 1013.3 0.0
30/06:00am 3.2 -0.2 -2.3 67 2.0 S 6 7 3 4 1014.8 1012.9 0.0
30/05:30am 3.4 0.4 -2.1 67 2.0 SSW 4 9 2 5 1014.4 1012.6 0.0
30/05:00am 3.9 1.6 -2.1 65 2.2 CALM 0 0 0 0 1014.2 1012.4 0.0
30/04:30am 4.0 0.6 -2.2 64 2.3 S 6 9 3 5 1014.0 1012.2 0.0
30/04:00am 4.2 0.2 -2.4 62 2.4 S 9 11 5 6 1013.8 1012.0 0.0
30/03:30am 4.8 0.8 -2.3 60 2.6 SSW 9 13 5 7 1014.0 1012.2 0.0
30/03:00am 5.2 1.2 -2.1 59 2.7 SSE 9 11 5 6 1014.1 1012.3 0.0
30/02:30am 5.2 0.8 -2.4 58 2.8 SSW 11 13 6 7 1014.1 1012.3 0.0
30/02:00am 5.8 1.4 -2.3 56 3.0 SSW 11 13 6 7 1014.4 1012.6 0.0
30/01:30am 6.4 1.6 -2.5 53 3.3 S 13 13 7 7 1014.5 1012.7 0.0
30/01:00am 6.8 2.4 -2.6 51 3.5 S 11 13 6 7 1014.9 1013.1 0.0
30/12:30am 7.7 3.6 -2.9 47 4.0 SSW 9 11 5 6 1015.2 1013.4 0.0
30/12:00am 7.8 3.3 -3.4 45 4.2 S 11 13 6 7 1015.1 1013.3 0.0
 
Date/Time
CST
Temp
°C
App
Temp
°C
Dew
Point
°C
Rel
Hum
%
Delta-T
°C
Wind Press
QNH
hPa
Press
MSL
hPa
Rain since
9am
mm
Dir  Spd
km/h
Gust
km/h
Spd
kts
Gust
kts
29/11:30pm 9.1 5.3 -3.8 40 4.8 SSW 7 9 4 5 1015.5 1013.7 0.0
29/11:00pm 9.8 5.9 -4.2 37 5.2 SSW 7 11 4 6 1015.6 1013.8 0.0
29/10:30pm 10.0 5.7 -4.4 36 5.4 SSW 9 11 5 6 1015.5 1013.7 0.0
29/10:00pm 10.6 6.4 -4.2 35 5.6 SSW 9 11 5 6 1015.5 1013.7 0.0
29/09:30pm 11.7 7.9 -4.0 33 6.0 SSW 7 7 4 4 1015.4 1013.6 0.0
29/09:00pm 12.5 8.3 -4.1 31 6.4 SSW 9 11 5 6 1015.1 1013.3 0.0
29/08:30pm 13.8 9.2 -4.4 28 7.1 S 11 13 6 7 1014.7 1012.8 0.0
29/08:00pm 14.8 9.8 -4.5 26 7.6 S 13 15 7 8 1014.1 1012.3 0.0
29/07:30pm 16.0 11.2 -6.3 21 8.6 S 11 13 6 7 1013.8 1012.0 0.0
29/07:00pm 17.7 13.2 -6.9 18 9.5 SSW 9 11 5 6 1013.6 1011.8 0.0
29/06:30pm 20.0 14.6 -8.3 14 10.9 SSW 13 20 7 11 1013.6 1011.8 0.0
29/06:00pm 21.2 15.1 -8.3 13 11.5 SW 17 26 9 14 1013.5 1011.7 0.0
29/05:30pm 21.6 16.0 -11.3 10 12.1 SSW 13 30 7 16 1013.5 1011.7 0.0
29/05:00pm 21.6 15.9 -7.0 14 11.5 SSW 15 20 8 11 1013.4 1011.6 0.0
29/04:30pm 21.0 14.5 -8.4 13 11.4 SW 19 26 10 14 1013.4 1011.6 0.0
29/04:00pm 21.4 15.3 -7.2 14 11.4 SW 17 28 9 15 1013.3 1011.5 0.0
29/03:30pm 21.6 15.9 -7.0 14 11.5 S 15 32 8 17 1013.5 1011.7 0.0
29/03:00pm 19.9 13.9 -6.6 16 10.5 SSW 17 33 9 18 1013.7 1011.9 0.0
29/02:30pm 19.6 13.4 -5.3 18 10.1 SW 19 28 10 15 1014.3 1012.5 0.0
29/02:00pm 18.5 12.5 -7.0 17 9.9 SW 17 30 9 16 1014.9 1013.1 0.0
29/01:30pm 18.4 11.9 -6.3 18 9.7 SW 20 32 11 17 1015.4 1013.6 0.0
29/01:00pm 17.0 10.7 -6.1 20 9.0 SSW 19 30 10 16 1015.7 1013.9 0.0
29/12:30pm 16.4 10.2 -5.3 22 8.5 SW 19 33 10 18 1016.1 1014.3 0.0
29/12:00pm 15.6 8.4 -5.4 23 8.2 SW 24 37 13 20 1016.8 1015.0 0.0
29/11:30am 14.5 7.8 -4.2 27 7.4 SSW 22 35 12 19 1017.2 1015.4 0.0
29/11:00am 13.9 6.8 -4.3 28 7.1 SSW 24 39 13 21 1017.7 1015.9 0.0
29/10:30am 12.7 5.6 -4.4 30 6.6 SSW 24 41 13 22 1018.1 1016.3 0.0
29/10:00am 12.0 5.0 -3.8 33 6.1 SSW 24 33 13 18 1018.4 1016.7 0.0
29/09:30am 11.7 4.4 -3.2 35 5.8 SSW 26 35 14 19 1018.5 1016.8 0.0
29/09:00am 11.0 3.3 -3.1 37 5.5 SSW 28 41 15 22 1018.6 1016.9 0.0
29/08:30am 10.1 2.4 -2.9 40 5.0 SSW 28 37 15 20 1018.6 1016.9 0.0
29/08:00am 9.7 2.1 -2.3 43 4.7 SSW 28 37 15 20 1018.3 1016.5 0.0
29/07:30am 9.0 1.7 -2.6 44 4.5 SSW 26 35 14 19 1017.8 1016.0 0.0
29/07:00am 7.7 2.3 -4.4 42 4.4 SW 15 20 8 11 1017.4 1015.6 0.0
29/06:30am 6.9 1.4 -5.1 42 4.2 SW 15 17 8 9 1017.0 1015.2 0.0
29/06:00am 6.7 2.4 -5.0 43 4.1 W 9 11 5 6 1016.6 1014.9 0.0
29/05:30am 8.3 2.4 -5.5 37 4.9 SSW 17 24 9 13 1016.0 1014.2 0.0
29/05:00am 7.0 2.7 -5.0 42 4.3 SW 9 9 5 5 1015.7 1013.9 0.0
29/04:30am 8.0 4.0 -5.4 38 4.8 SW 7 9 4 5 1015.3 1013.5 0.0
29/04:00am 7.7 3.3 -5.4 39 4.6 SW 9 11 5 6 1015.0 1013.2 0.0
29/03:30am 8.7 4.9 -5.9 35 5.2 SW 6 9 3 5 1014.8 1012.9 0.0
29/03:00am 9.7 5.3 -5.8 33 5.6 WSW 9 13 5 7 1014.8 1012.9 0.0
29/02:30am 10.2 6.2 -6.1 31 5.9 WSW 7 9 4 5 1014.8 1012.9 0.0
29/02:00am 10.9 6.8 -6.4 29 6.2 SSW 7 9 4 5 1014.8 1012.9 0.0
29/01:30am 12.0 8.1 -6.9 26 6.8 SE 6 7 3 4 1014.8 1012.9 0.0
29/01:00am 12.9 7.6 -7.2 24 7.3 SW 13 19 7 10 1014.8 1012.9 0.0
29/12:30am 13.9 7.8 -7.4 22 7.8 SW 17 24 9 13 1014.9 1013.1 0.0
29/12:00am 14.9 8.4 -7.8 20 8.3 SW 19 26 10 14 1014.8 1012.9 0.0
 
Date/Time
CST
Temp
°C
App
Temp
°C
Dew
Point
°C
Rel
Hum
%
Delta-T
°C
Wind Press
QNH
hPa
Press
MSL
hPa
Rain since
9am
mm
Dir  Spd
km/h
Gust
km/h
Spd
kts
Gust
kts
28/11:30pm 15.2 9.1 -7.6 20 8.4 SW 17 24 9 13 1014.8 1012.9 0.0
28/11:00pm 16.5 9.8 -8.6 17 9.2 SW 20 28 11 15 1014.5 1012.7 0.0
28/10:30pm 17.3 9.7 -9.5 15 9.7 SW 24 32 13 17 1014.2 1012.4 0.0
28/10:00pm 18.2 10.6 -9.7 14 10.2 SW 24 33 13 18 1013.9 1012.1 0.0
28/09:30pm 19.1 11.3 -12.0 11 11.0 SW 24 35 13 19 1013.5 1011.7 0.0
28/09:00pm 20.4 10.8 -13.5 9 11.8 WSW 33 46 18 25 1012.9 1011.0 0.0
28/08:54pm 20.4 11.8 -13.5 9 11.8 WSW 28 46 15 25 1012.7 1010.8 0.0
28/08:30pm 19.8 13.5 -10.4 12 11.1 WSW 17 22 9 12 1012.0 1010.2 0.0
28/08:00pm 21.0 14.3 -10.5 11 11.7 WSW 19 26 10 14 1011.3 1009.5 0.0

Other Formats:

Comma delimited format used in spreadsheet applications
http://www.bom.gov.au/fwo/IDD60801/IDD60801.94462.axf

JavaScript Object Notation format (JSON) in row-major order
http://www.bom.gov.au/fwo/IDD60801/IDD60801.94462.json